Bay Mills, Wisconsin
Current Conditions -  °F | °C
As of 8:55 AM on Monday 24 Nov 2014 (Local Time) from KTKV Reporting Station
Light Rain Light Rain  
Wind Chill: 25°   Ceiling: 800
Heat Index: 33°   Visibility: 3mi
Dew Point: 32°   Wind: 9mph
Humidity: 97%   Direction: 310°NW
Pressure: 29.11"   Gusts: 16mph
Location:  45.5047°N, 89.7732°W
Report Text: KTKV 241455Z AUTO 31008G14KT 270V330 3SM -RA OVC008 01/00 A2911 RMK AO2 60003 T00060002
Loading
Personal Weather Stations






























Interactive Weather Map New forecast layout! Learn more

10-Day Weather Forecast

Advertisements
Track Severe Weather on mobile